createdAt,value
2022-11-23T00:01:33.223Z,92.05
2022-11-23T00:04:07.084Z,91.60
2022-11-23T00:06:35.528Z,91.64
2022-11-23T00:09:04.646Z,92.32
2022-11-23T00:11:34.634Z,91.98
2022-11-23T00:14:02.487Z,92.72
2022-11-23T00:16:31.276Z,92.18
2022-11-23T00:19:00.514Z,92.24
2022-11-23T00:21:31.418Z,93.20
2022-11-23T00:23:59.907Z,93.19
2022-11-23T00:26:27.866Z,92.50
2022-11-23T00:28:55.894Z,93.03
2022-11-23T00:31:27.910Z,92.60
2022-11-23T00:33:57.900Z,92.59
2022-11-23T00:36:27.712Z,92.22
2022-11-23T00:38:55.904Z,93.11
2022-11-23T00:41:26.347Z,92.00
2022-11-23T00:43:54.656Z,92.50
2022-11-23T00:46:27.685Z,92.79
2022-11-23T00:48:57.648Z,91.92
2022-11-23T00:51:33.755Z,91.37
2022-11-23T00:54:06.006Z,92.73
2022-11-23T00:56:35.096Z,91.61
2022-11-23T00:59:04.164Z,91.10
2022-11-23T01:01:35.774Z,91.01
2022-11-23T01:04:05.575Z,90.98
2022-11-23T01:06:35.826Z,91.99
2022-11-23T01:09:06.642Z,91.16
2022-11-23T01:11:34.645Z,91.78
2022-11-23T01:14:02.826Z,90.98
2022-11-23T01:16:38.732Z,91.60
2022-11-23T01:19:10.686Z,90.94
2022-11-23T01:21:40.182Z,92.61
2022-11-23T01:24:10.452Z,91.75
2022-11-23T01:26:40.367Z,90.78
2022-11-23T01:29:08.757Z,90.99
2022-11-23T01:31:46.184Z,91.94
2022-11-23T01:34:16.705Z,90.88
2022-11-23T01:36:44.786Z,90.39
2022-11-23T01:39:13.267Z,89.91
2022-11-23T01:41:43.665Z,89.58
2022-11-23T01:44:32.444Z,89.93
2022-11-23T01:47:03.575Z,89.77
2022-11-23T01:49:35.557Z,89.05
2022-11-23T01:52:19.810Z,87.57
2022-11-23T01:54:50.426Z,87.05
2022-11-23T01:57:23.166Z,87.04
2022-11-23T01:59:51.509Z,87.70
2022-11-23T02:02:19.904Z,88.19
2022-11-23T02:04:52.364Z,87.57
2022-11-23T02:07:21.022Z,86.84
2022-11-23T02:09:49.654Z,88.72
2022-11-23T02:12:17.676Z,88.25
2022-11-23T02:14:46.327Z,88.06
2022-11-23T02:17:14.353Z,90.25
2022-11-23T02:19:59.806Z,90.42
2022-11-23T02:22:59.536Z,91.07
2022-11-23T02:25:33.285Z,90.65
2022-11-23T02:28:02.205Z,91.95
2022-11-23T02:30:30.928Z,91.88
2022-11-23T02:32:59.135Z,90.49
2022-11-23T02:35:27.336Z,90.17
2022-11-23T02:37:55.206Z,90.37
2022-11-23T02:40:31.277Z,91.55
2022-11-23T02:42:59.965Z,91.42
2022-11-23T02:45:41.536Z,91.29
2022-11-23T02:48:09.617Z,90.16
2022-11-23T02:50:38.427Z,90.27
2022-11-23T02:53:07.656Z,90.67
2022-11-23T02:55:36.375Z,89.80
2022-11-23T02:58:04.702Z,89.55
2022-11-23T03:00:32.890Z,88.92
2022-11-23T03:03:02.466Z,90.03
2022-11-23T03:05:30.548Z,89.50
2022-11-23T03:07:58.607Z,89.82
2022-11-23T03:10:26.971Z,91.05
2022-11-23T03:12:56.577Z,89.65
2022-11-23T03:15:24.888Z,88.76
2022-11-23T03:17:53.428Z,89.18
2022-11-23T03:20:21.638Z,90.03
2022-11-23T03:22:49.970Z,89.89
2022-11-23T03:25:18.548Z,89.93
2022-11-23T03:27:49.037Z,89.18
2022-11-23T03:30:17.011Z,89.55
2022-11-23T03:32:45.539Z,89.02
2022-11-23T03:35:13.648Z,90.91
2022-11-23T03:37:42.656Z,89.70
2022-11-23T03:40:11.607Z,89.60
2022-11-23T03:42:41.435Z,89.81
2022-11-23T03:45:09.977Z,88.92
2022-11-23T03:47:38.356Z,89.47
2022-11-23T03:50:07.251Z,90.60
2022-11-23T03:52:35.207Z,89.84
2022-11-23T03:55:03.896Z,88.81
2022-11-23T03:57:31.894Z,88.70
2022-11-23T04:00:01.174Z,88.10
2022-11-23T04:02:29.564Z,89.66
2022-11-23T04:04:59.209Z,88.87
2022-11-23T04:07:28.880Z,89.16
2022-11-23T04:09:57.327Z,89.78
2022-11-23T04:12:26.688Z,88.83
2022-11-23T04:14:54.625Z,89.75
2022-11-23T04:17:22.935Z,89.08
2022-11-23T04:19:50.837Z,89.05
2022-11-23T04:22:18.814Z,87.70
2022-11-23T04:24:47.895Z,88.62
2022-11-23T04:27:15.766Z,88.57
2022-11-23T04:29:43.746Z,87.87
2022-11-23T04:32:12.015Z,88.33
2022-11-23T04:34:40.214Z,88.31
2022-11-23T04:37:13.017Z,86.95
2022-11-23T04:39:41.985Z,89.03
2022-11-23T04:42:12.155Z,89.46
2022-11-23T04:44:40.292Z,89.27
2022-11-23T04:47:09.834Z,89.00
2022-11-23T04:49:38.432Z,90.30
2022-11-23T04:52:06.531Z,88.71
2022-11-23T04:54:35.506Z,88.57
2022-11-23T04:57:04.134Z,88.32
2022-11-23T04:59:32.461Z,88.78
2022-11-23T05:02:00.984Z,88.80
2022-11-23T05:04:30.729Z,88.31
2022-11-23T05:06:58.656Z,88.08
2022-11-23T05:09:27.015Z,88.34
2022-11-23T05:11:55.875Z,87.70
2022-11-23T05:14:23.793Z,89.12
2022-11-23T05:16:51.995Z,88.55
2022-11-23T05:19:19.873Z,87.58
2022-11-23T05:21:47.876Z,86.75
2022-11-23T05:24:16.386Z,87.10
2022-11-23T05:26:46.016Z,87.65
2022-11-23T05:29:13.987Z,88.19
2022-11-23T05:31:42.295Z,88.26
2022-11-23T05:34:10.314Z,88.04
2022-11-23T05:36:42.215Z,87.44
2022-11-23T05:39:11.049Z,88.17
2022-11-23T05:41:39.214Z,87.23
2022-11-23T05:44:08.506Z,85.99
2022-11-23T05:46:36.789Z,87.34
2022-11-23T05:49:04.834Z,85.63
2022-11-23T05:51:33.593Z,85.82
2022-11-23T05:54:02.435Z,85.14
2022-11-23T05:56:31.472Z,85.41
2022-11-23T05:59:05.554Z,85.05
2022-11-23T06:01:34.718Z,85.72
2022-11-23T06:04:04.355Z,86.70
2022-11-23T06:06:33.093Z,86.75
2022-11-23T06:09:00.993Z,86.55
2022-11-23T06:11:31.313Z,83.96
2022-11-23T06:13:59.724Z,84.13
2022-11-23T06:16:27.763Z,85.18
2022-11-23T06:18:56.854Z,86.57
2022-11-23T06:21:24.974Z,85.62
2022-11-23T06:23:53.036Z,86.83
2022-11-23T06:26:21.967Z,86.18
2022-11-23T06:28:49.895Z,86.76
2022-11-23T06:31:18.034Z,86.75
2022-11-23T06:33:46.234Z,85.14
2022-11-23T06:36:15.673Z,85.81
2022-11-23T06:38:43.693Z,85.85
2022-11-23T06:41:12.624Z,85.97
2022-11-23T06:43:40.797Z,86.72
2022-11-23T06:46:08.808Z,85.55
2022-11-23T06:48:37.915Z,86.07
2022-11-23T06:51:06.658Z,87.43
2022-11-23T06:53:36.668Z,88.57
2022-11-23T06:56:05.590Z,88.28
2022-11-23T06:58:33.885Z,85.95
2022-11-23T07:01:03.769Z,86.44
2022-11-23T07:03:33.956Z,87.57
2022-11-23T07:06:08.876Z,87.54
2022-11-23T07:08:43.416Z,86.70
2022-11-23T07:11:13.547Z,85.44
2022-11-23T07:13:41.916Z,86.68
2022-11-23T07:16:10.114Z,87.39
2022-11-23T07:18:38.237Z,85.76
2022-11-23T07:21:07.666Z,85.62
2022-11-23T07:23:40.782Z,87.50
2022-11-23T07:26:09.504Z,88.37
2022-11-23T07:28:37.691Z,86.81
2022-11-23T07:31:07.132Z,86.62
2022-11-23T07:33:35.762Z,86.79
2022-11-23T07:36:04.283Z,86.25
2022-11-23T07:38:32.404Z,87.10
2022-11-23T07:41:01.942Z,87.62
2022-11-23T07:43:31.039Z,87.55
2022-11-23T07:45:59.766Z,86.14
2022-11-23T07:48:31.866Z,85.58
2022-11-23T07:51:02.901Z,85.83
2022-11-23T07:53:31.252Z,85.67
2022-11-23T07:55:59.330Z,84.84
2022-11-23T07:58:27.828Z,84.43
2022-11-23T08:00:56.292Z,84.52
2022-11-23T08:03:29.054Z,83.74
2022-11-23T08:05:57.680Z,83.40
2022-11-23T08:08:26.292Z,84.84
2022-11-23T08:10:54.800Z,84.95
2022-11-23T08:13:22.980Z,86.54
2022-11-23T08:15:56.049Z,84.63
2022-11-23T08:18:24.658Z,83.69
2022-11-23T08:20:53.510Z,86.03
2022-11-23T08:23:21.942Z,87.49
2022-11-23T08:25:49.920Z,88.39
2022-11-23T08:28:18.731Z,87.00
2022-11-23T08:30:46.999Z,85.82
2022-11-23T08:33:15.161Z,86.71
2022-11-23T08:35:43.689Z,87.26
2022-11-23T08:38:12.205Z,86.16
2022-11-23T08:40:40.851Z,86.89
2022-11-23T08:43:09.448Z,88.36
2022-11-23T08:45:38.063Z,86.69
2022-11-23T08:48:06.631Z,88.13
2022-11-23T08:50:35.794Z,86.67
2022-11-23T08:53:03.916Z,87.34
2022-11-23T08:55:32.017Z,87.63
2022-11-23T08:58:00.630Z,88.87
2022-11-23T09:00:29.860Z,88.24
2022-11-23T09:02:59.221Z,87.00
2022-11-23T09:05:28.875Z,90.10
2022-11-23T09:08:00.715Z,89.96
2022-11-23T09:10:29.434Z,91.27
2022-11-23T09:12:58.760Z,87.82
2022-11-23T09:15:26.976Z,88.99
2022-11-23T09:17:55.540Z,91.73
2022-11-23T09:20:23.919Z,92.25
2022-11-23T09:22:55.783Z,92.11
2022-11-23T09:25:24.535Z,92.27
2022-11-23T09:27:59.254Z,91.37
2022-11-23T09:30:28.263Z,90.23
2022-11-23T09:32:58.223Z,91.95
2022-11-23T09:35:27.683Z,90.45
2022-11-23T09:38:00.086Z,88.67
2022-11-23T09:40:33.243Z,92.99
2022-11-23T09:43:27.471Z,91.38
2022-11-23T09:45:57.412Z,90.82
2022-11-23T09:48:44.161Z,92.64
2022-11-23T09:51:21.129Z,95.01
2022-11-23T09:54:05.477Z,92.56
2022-11-23T09:56:34.802Z,93.58
2022-11-23T09:59:14.539Z,93.58
2022-11-23T10:01:42.929Z,92.30
2022-11-23T10:04:18.219Z,93.26
2022-11-23T10:06:55.401Z,90.95
2022-11-23T10:09:31.358Z,91.60
2022-11-23T10:12:19.531Z,91.13
2022-11-23T10:15:26.103Z,91.00
2022-11-23T10:18:05.964Z,92.66
2022-11-23T10:21:07.830Z,91.73
2022-11-23T10:23:56.469Z,89.93
2022-11-23T10:26:33.393Z,89.30
2022-11-23T10:29:12.452Z,89.27
2022-11-23T10:31:44.422Z,91.19
2022-11-23T10:34:15.650Z,90.25
2022-11-23T10:36:44.147Z,91.66
2022-11-23T10:39:26.350Z,88.52
2022-11-23T10:41:59.902Z,89.72
2022-11-23T10:44:40.054Z,89.06
2022-11-23T10:47:08.483Z,89.40
2022-11-23T10:49:37.790Z,88.33
2022-11-23T10:52:25.490Z,90.15
2022-11-23T10:54:55.692Z,88.31
2022-11-23T10:57:45.151Z,90.68
2022-11-23T11:00:14.169Z,89.11
2022-11-23T11:02:55.960Z,88.50
2022-11-23T11:08:30.920Z,90.29
2022-11-23T11:11:30.148Z,88.87
2022-11-23T11:14:14.803Z,88.04
2022-11-23T11:16:59.811Z,87.54
2022-11-23T11:19:41.843Z,85.93
2022-11-23T11:22:35.769Z,87.36
2022-11-23T11:25:07.630Z,87.58
2022-11-23T11:27:36.110Z,89.46
2022-11-23T11:30:07.243Z,90.10
2022-11-23T11:32:54.411Z,88.73
2022-11-23T11:35:44.983Z,87.99
2022-11-23T11:38:25.142Z,91.30
2022-11-23T11:40:53.632Z,87.73
2022-11-23T11:43:36.315Z,85.38
2022-11-23T11:46:31.626Z,84.15
2022-11-23T11:49:19.852Z,87.16
2022-11-23T11:51:58.851Z,85.35
2022-11-23T11:54:52.323Z,85.51
2022-11-23T11:57:22.827Z,89.09
2022-11-23T11:59:56.181Z,87.44
2022-11-23T12:02:57.592Z,90.47
2022-11-23T12:05:53.623Z,89.77
2022-11-23T12:08:44.728Z,89.03
2022-11-23T12:11:13.807Z,86.27
2022-11-23T12:13:44.262Z,83.44
2022-11-23T12:17:31.509Z,82.44
2022-11-23T12:20:18.181Z,84.49
2022-11-23T12:23:10.435Z,83.25
2022-11-23T12:25:44.781Z,85.45
2022-11-23T12:28:35.532Z,90.39
2022-11-23T12:31:21.431Z,90.30
2022-11-23T12:34:23.432Z,92.37
2022-11-23T12:37:10.566Z,94.07
2022-11-23T12:40:01.531Z,92.10
2022-11-23T12:42:43.181Z,90.62
2022-11-23T12:45:38.972Z,87.52
2022-11-23T12:48:42.418Z,92.30
2022-11-23T12:51:35.229Z,91.85
2022-11-23T12:54:15.370Z,92.74
2022-11-23T12:57:08.937Z,91.79
2022-11-23T12:59:42.342Z,91.55
2022-11-23T13:02:52.834Z,93.62
2022-11-23T13:05:33.120Z,92.96
2022-11-23T13:08:04.394Z,95.05
2022-11-23T13:10:45.409Z,92.60
2022-11-23T13:13:43.511Z,91.40
2022-11-23T13:16:30.109Z,91.60
2022-11-23T13:19:23.492Z,92.67
2022-11-23T13:21:51.671Z,92.36
2022-11-23T13:24:38.372Z,92.64
2022-11-23T13:27:15.548Z,93.55
2022-11-23T13:29:53.600Z,92.75
2022-11-23T13:32:40.263Z,91.91
2022-11-23T13:35:11.722Z,89.90
2022-11-23T13:38:14.961Z,90.03
2022-11-23T13:40:45.561Z,92.01
2022-11-23T13:43:16.643Z,88.09
2022-11-23T13:45:45.788Z,86.81
2022-11-23T13:48:48.897Z,85.87
2022-11-23T13:51:07.251Z,89.73
2022-11-23T13:53:43.092Z,88.46
2022-11-23T13:56:29.915Z,92.02
2022-11-23T13:59:00.575Z,91.53
2022-11-23T14:02:00.631Z,90.66
2022-11-23T14:04:31.285Z,91.79
2022-11-23T14:07:18.446Z,88.73
2022-11-23T14:09:51.022Z,89.31
2022-11-23T14:12:32.202Z,87.73
2022-11-23T14:15:19.271Z,87.07
2022-11-23T14:18:11.665Z,89.02
2022-11-23T14:20:42.967Z,90.05
2022-11-23T14:23:41.773Z,88.68
2022-11-23T14:26:31.771Z,89.00
2022-11-23T14:29:45.033Z,92.69
2022-11-23T14:32:20.785Z,91.11
2022-11-23T14:35:02.783Z,89.83
2022-11-23T14:38:01.346Z,94.12
2022-11-23T14:40:53.721Z,91.21
2022-11-23T14:43:22.930Z,89.42
2022-11-23T14:45:51.047Z,87.13
2022-11-23T14:48:30.187Z,85.07
2022-11-23T14:51:01.704Z,86.86
2022-11-23T14:53:46.506Z,89.95
2022-11-23T14:56:31.791Z,87.26
2022-11-23T14:59:05.311Z,91.19
2022-11-23T15:01:35.079Z,90.94
2022-11-23T15:04:13.966Z,87.17
2022-11-23T15:06:47.134Z,87.47
2022-11-23T15:09:38.229Z,87.50
2022-11-23T15:12:25.162Z,85.95
2022-11-23T15:14:57.533Z,85.47
2022-11-23T15:17:26.228Z,86.94
2022-11-23T15:19:59.451Z,83.76
2022-11-23T15:22:29.391Z,82.15
2022-11-23T15:25:09.480Z,83.12
2022-11-23T15:27:40.946Z,83.39
2022-11-23T15:30:19.211Z,83.88
2022-11-23T15:33:04.080Z,83.94
2022-11-23T15:35:34.993Z,85.39
2022-11-23T15:38:05.511Z,85.62
2022-11-23T15:40:37.233Z,85.84
2022-11-23T15:43:07.477Z,83.74
2022-11-23T15:45:46.666Z,86.86
2022-11-23T15:48:18.891Z,84.89
2022-11-23T15:50:55.507Z,87.78
2022-11-23T15:53:29.922Z,87.07
2022-11-23T15:56:04.852Z,85.21
2022-11-23T15:58:35.421Z,85.08
2022-11-23T16:01:12.151Z,83.44
2022-11-23T16:03:42.600Z,84.05
2022-11-23T16:06:35.065Z,85.47
2022-11-23T16:09:53.796Z,86.28
2022-11-23T16:12:29.803Z,85.30
2022-11-23T16:15:45.803Z,84.96
2022-11-23T16:18:14.091Z,83.06
2022-11-23T16:20:48.302Z,84.34
2022-11-23T16:23:28.271Z,82.08
2022-11-23T16:26:05.464Z,83.49
2022-11-23T16:28:35.561Z,88.35
2022-11-23T16:31:04.616Z,86.77
2022-11-23T16:33:33.065Z,85.22
2022-11-23T16:36:01.362Z,85.96
2022-11-23T16:38:30.694Z,86.06
2022-11-23T16:40:58.831Z,86.95
2022-11-23T16:43:27.041Z,87.77
2022-11-23T16:45:56.050Z,88.18
2022-11-23T16:48:27.166Z,85.61
2022-11-23T16:50:57.487Z,87.27
2022-11-23T16:53:27.191Z,86.51
2022-11-23T16:55:57.502Z,88.09
2022-11-23T16:58:26.310Z,86.56
2022-11-23T17:00:56.900Z,87.58
2022-11-23T17:03:25.381Z,87.29
2022-11-23T17:05:53.389Z,87.78
2022-11-23T17:08:23.885Z,85.92
2022-11-23T17:10:52.711Z,87.33
2022-11-23T17:13:26.059Z,86.65
2022-11-23T17:15:54.921Z,87.05
2022-11-23T17:18:23.189Z,88.65
2022-11-23T17:20:51.274Z,87.33
2022-11-23T17:23:20.224Z,86.03
2022-11-23T17:25:48.421Z,86.77
2022-11-23T17:28:21.599Z,87.26
2022-11-23T17:30:50.413Z,86.33
2022-11-23T17:33:18.930Z,85.50
2022-11-23T17:35:47.263Z,84.63
2022-11-23T17:38:20.622Z,87.51
2022-11-23T17:40:48.690Z,86.64
2022-11-23T17:43:17.041Z,88.37
2022-11-23T17:45:45.238Z,87.74
2022-11-23T17:48:14.643Z,88.11
2022-11-23T17:50:43.553Z,88.35
2022-11-23T17:53:11.682Z,86.66
2022-11-23T17:55:40.014Z,87.16
2022-11-23T17:58:09.751Z,87.15
2022-11-23T18:00:38.390Z,85.75
2022-11-23T18:03:06.772Z,86.80
2022-11-23T18:05:34.873Z,86.53
2022-11-23T18:08:02.884Z,86.25
2022-11-23T18:10:31.163Z,86.03
2022-11-23T18:12:59.281Z,86.39
2022-11-23T18:15:27.676Z,84.99
2022-11-23T18:17:58.977Z,85.73
2022-11-23T18:20:31.142Z,85.69
2022-11-23T18:22:59.452Z,86.37
2022-11-23T18:25:27.524Z,87.08
2022-11-23T18:27:55.561Z,87.39
2022-11-23T18:30:23.844Z,87.60
2022-11-23T18:32:51.860Z,87.39
2022-11-23T18:35:19.824Z,88.39
2022-11-23T18:37:48.562Z,87.07
2022-11-23T18:40:16.622Z,86.34
2022-11-23T18:42:44.560Z,86.74
2022-11-23T18:45:12.884Z,85.28
2022-11-23T18:47:40.842Z,85.06
2022-11-23T18:50:09.269Z,84.35
2022-11-23T18:52:37.616Z,87.36
2022-11-23T18:55:06.059Z,85.40
2022-11-23T18:57:34.001Z,84.46
2022-11-23T19:00:02.883Z,87.81
2022-11-23T19:02:31.467Z,87.32
2022-11-23T19:05:00.382Z,87.96
2022-11-23T19:07:29.063Z,89.25
2022-11-23T19:09:57.242Z,87.07
2022-11-23T19:12:25.294Z,84.75
2022-11-23T19:14:53.640Z,86.37
2022-11-23T19:17:21.691Z,85.15
2022-11-23T19:19:49.722Z,89.06
2022-11-23T19:22:18.111Z,87.26
2022-11-23T19:24:46.152Z,84.42
2022-11-23T19:27:14.156Z,85.02
2022-11-23T19:29:42.532Z,85.08
2022-11-23T19:32:10.513Z,82.79
2022-11-23T19:34:38.495Z,85.38
2022-11-23T19:37:06.962Z,84.43
2022-11-23T19:39:35.199Z,84.45
2022-11-23T19:42:03.789Z,86.09
2022-11-23T19:44:32.041Z,84.70
2022-11-23T19:46:59.970Z,87.50
2022-11-23T19:49:28.215Z,83.91
2022-11-23T19:51:57.245Z,84.22
2022-11-23T19:54:25.400Z,84.93
2022-11-23T19:56:53.585Z,83.07
2022-11-23T19:59:21.940Z,86.73
2022-11-23T20:01:49.900Z,84.76
2022-11-23T20:04:18.364Z,84.91
2022-11-23T20:06:46.432Z,85.79
2022-11-23T20:09:19.628Z,85.42
2022-11-23T20:11:51.017Z,86.46
2022-11-23T20:14:20.079Z,85.26
2022-11-23T20:16:48.881Z,88.11
2022-11-23T20:19:17.007Z,86.65
2022-11-23T20:21:44.963Z,88.14
2022-11-23T20:24:14.598Z,85.98
2022-11-23T20:26:46.204Z,86.48
2022-11-23T20:29:16.750Z,86.53
2022-11-23T20:31:45.412Z,85.15
2022-11-23T20:34:18.416Z,85.11
2022-11-23T20:36:50.195Z,85.74
2022-11-23T20:39:18.954Z,87.63
2022-11-23T20:41:50.142Z,86.83
2022-11-23T20:44:19.231Z,86.29
2022-11-23T20:47:01.744Z,86.54
2022-11-23T20:49:31.823Z,86.40
2022-11-23T20:52:00.532Z,87.11
2022-11-23T20:54:28.650Z,86.23
2022-11-23T20:57:00.369Z,86.37
2022-11-23T20:59:28.731Z,84.91
2022-11-23T21:01:57.081Z,86.13
2022-11-23T21:04:25.234Z,85.36
2022-11-23T21:06:53.301Z,86.24
2022-11-23T21:09:22.316Z,86.00
2022-11-23T21:12:09.361Z,85.15
2022-11-23T21:14:38.434Z,86.46
2022-11-23T21:17:08.412Z,86.45
2022-11-23T21:19:40.321Z,87.34
2022-11-23T21:22:11.640Z,86.93
2022-11-23T21:24:40.747Z,87.14
2022-11-23T21:27:12.385Z,86.60
2022-11-23T21:29:41.020Z,84.50
2022-11-23T21:32:09.290Z,85.86
2022-11-23T21:34:37.626Z,85.86
2022-11-23T21:37:05.825Z,86.11
2022-11-23T21:39:34.710Z,85.49
2022-11-23T21:42:03.981Z,87.31
2022-11-23T21:44:32.567Z,85.13
2022-11-23T21:47:01.969Z,87.16
2022-11-23T21:49:30.332Z,86.32
2022-11-23T21:51:58.481Z,84.92
2022-11-23T21:54:27.380Z,85.09
2022-11-23T21:56:56.092Z,85.68
2022-11-23T21:59:25.901Z,86.22
2022-11-23T22:01:57.937Z,86.66
2022-11-23T22:04:26.974Z,85.41
2022-11-23T22:06:55.017Z,86.19
2022-11-23T22:09:23.010Z,86.47
2022-11-23T22:11:51.432Z,87.18
2022-11-23T22:14:20.248Z,86.92
2022-11-23T22:16:56.955Z,85.25
2022-11-23T22:19:26.110Z,85.56
2022-11-23T22:21:54.340Z,84.69
2022-11-23T22:24:23.569Z,86.97
2022-11-23T22:26:52.941Z,85.03
2022-11-23T22:29:21.189Z,86.43
2022-11-23T22:31:49.251Z,87.35
2022-11-23T22:34:17.689Z,85.97
2022-11-23T22:36:45.599Z,85.79
2022-11-23T22:39:13.627Z,85.45
2022-11-23T22:41:42.008Z,88.03
2022-11-23T22:44:10.820Z,87.07
2022-11-23T22:46:39.482Z,85.97
2022-11-23T22:49:08.000Z,84.81
2022-11-23T22:51:36.354Z,87.79
2022-11-23T22:54:04.877Z,86.18
2022-11-23T22:56:33.548Z,87.37
2022-11-23T22:59:01.456Z,89.45
2022-11-23T23:01:31.058Z,88.97
2022-11-23T23:04:01.774Z,89.53
2022-11-23T23:06:35.084Z,89.60
2022-11-23T23:09:06.657Z,90.83
2022-11-23T23:11:35.892Z,88.22
2022-11-23T23:14:04.297Z,89.14
2022-11-23T23:16:32.494Z,90.23
2022-11-23T23:19:00.709Z,88.66
2022-11-23T23:21:29.542Z,89.95
2022-11-23T23:24:00.330Z,89.22
2022-11-23T23:26:29.043Z,87.70
2022-11-23T23:28:58.498Z,87.45
2022-11-23T23:31:27.722Z,86.49
2022-11-23T23:33:57.247Z,87.28
2022-11-23T23:36:25.612Z,88.60
2022-11-23T23:38:53.636Z,87.06
2022-11-23T23:41:21.931Z,86.90
2022-11-23T23:43:49.972Z,89.31
2022-11-23T23:46:18.129Z,87.62
2022-11-23T23:48:46.558Z,87.85
2022-11-23T23:51:16.892Z,87.52
2022-11-23T23:53:45.949Z,88.36
2022-11-23T23:56:16.500Z,87.96
2022-11-23T23:58:45.031Z,88.14
